EZY176U EGBB-EGPH
Flight info
| Callsign | EZY176U |
|---|---|
| Flight time | 0h 45m |
| Altitude | 28000 |
| Route | LUVUM DCT TNT N57 POL UN601 RIBEL DCT INPIP |
| Aircraft | A320/M-SDE3FGHIRWY/LB1 |
Departure
| Time | 2026-04-20 13:35 |
|---|---|
| Airport | Birmingham Airport (EGBB) |
Arrival
| Time | 2026-04-20 14:21 |
|---|---|
| Airport | Edinburgh Airport (EGPH) |
| Time | Latitude | Longitude | Altitude | Speed | Heading |
|---|---|---|---|---|---|
| 2026-04-20 13:12 | 52.45348 | -1.73700 | 322 ft | 0 kts | 146° |
| 2026-04-20 13:14 | 52.45348 | -1.73701 | 322 ft | 0 kts | 146° |
| 2026-04-20 13:26 | 52.45349 | -1.73701 | 323 ft | 1 kts | 146° |
| 2026-04-20 13:27 | 52.45368 | -1.73722 | 321 ft | 4 kts | 153° |
| 2026-04-20 13:27 | 52.45393 | -1.73737 | 321 ft | 4 kts | 175° |
| 2026-04-20 13:27 | 52.45415 | -1.73731 | 322 ft | 3 kts | 232° |
| 2026-04-20 13:27 | 52.45417 | -1.73727 | 322 ft | 0 kts | 236° |
| 2026-04-20 13:30 | 52.45414 | -1.73734 | 322 ft | 5 kts | 236° |
| 2026-04-20 13:30 | 52.45368 | -1.73843 | 323 ft | 15 kts | 235° |
| 2026-04-20 13:30 | 52.45312 | -1.73982 | 323 ft | 14 kts | 245° |
| 2026-04-20 13:30 | 52.45335 | -1.74118 | 323 ft | 12 kts | 297° |
| 2026-04-20 13:31 | 52.45384 | -1.74276 | 323 ft | 21 kts | 297° |
| 2026-04-20 13:31 | 52.45454 | -1.74503 | 323 ft | 23 kts | 297° |
| 2026-04-20 13:31 | 52.45576 | -1.74686 | 320 ft | 25 kts | 326° |
| 2026-04-20 13:31 | 52.45727 | -1.74853 | 311 ft | 25 kts | 326° |
| 2026-04-20 13:32 | 52.45883 | -1.75026 | 306 ft | 28 kts | 324° |
| 2026-04-20 13:32 | 52.46030 | -1.75190 | 306 ft | 24 kts | 326° |
| 2026-04-20 13:32 | 52.46173 | -1.75349 | 303 ft | 26 kts | 326° |
| 2026-04-20 13:32 | 52.46320 | -1.75512 | 304 ft | 26 kts | 326° |
| 2026-04-20 13:33 | 52.46475 | -1.75683 | 302 ft | 27 kts | 326° |
| 2026-04-20 13:33 | 52.46591 | -1.75813 | 306 ft | 12 kts | 326° |
| 2026-04-20 13:33 | 52.46635 | -1.75881 | 309 ft | 7 kts | 289° |
| 2026-04-20 13:33 | 52.46622 | -1.75948 | 306 ft | 0 kts | 237° |
| 2026-04-20 13:34 | 52.46619 | -1.75955 | 307 ft | 0 kts | 237° |
| 2026-04-20 13:34 | 52.46618 | -1.75959 | 307 ft | 3 kts | 237° |
| 2026-04-20 13:34 | 52.46574 | -1.76066 | 305 ft | 12 kts | 233° |
| 2026-04-20 13:34 | 52.46518 | -1.76060 | 308 ft | 6 kts | 146° |
| 2026-04-20 13:35 | 52.46448 | -1.75983 | 310 ft | 35 kts | 146° |
| 2026-04-20 13:35 | 52.46024 | -1.75511 | 311 ft | 108 kts | 146° |
| 2026-04-20 13:35 | 52.45249 | -1.74649 | 331 ft | 159 kts | 146° |
| 2026-04-20 13:35 | 52.44322 | -1.73661 | 1009 ft | 157 kts | 145° |
| 2026-04-20 13:36 | 52.43410 | -1.72677 | 1733 ft | 161 kts | 143° |
| 2026-04-20 13:36 | 52.42424 | -1.71558 | 2127 ft | 183 kts | 142° |
| 2026-04-20 13:36 | 52.41328 | -1.70287 | 2617 ft | 199 kts | 137° |
| 2026-04-20 13:36 | 52.40545 | -1.68465 | 3425 ft | 197 kts | 106° |
| 2026-04-20 13:37 | 52.40461 | -1.66197 | 4091 ft | 206 kts | 78° |
| 2026-04-20 13:37 | 52.40801 | -1.63903 | 4952 ft | 209 kts | 71° |
| 2026-04-20 13:37 | 52.41582 | -1.61891 | 5756 ft | 215 kts | 43° |
| 2026-04-20 13:37 | 52.42413 | -1.60987 | 6276 ft | 220 kts | 24° |
| 2026-04-20 13:38 | 52.43893 | -1.60287 | 7086 ft | 223 kts | 16° |
| 2026-04-20 13:38 | 52.45408 | -1.59711 | 7929 ft | 225 kts | 8° |
| 2026-04-20 13:38 | 52.47038 | -1.59703 | 8408 ft | 246 kts | 357° |
| 2026-04-20 13:38 | 52.48830 | -1.59882 | 8859 ft | 267 kts | 357° |
| 2026-04-20 13:39 | 52.50712 | -1.60117 | 9665 ft | 274 kts | 351° |
| 2026-04-20 13:39 | 52.52541 | -1.61061 | 10513 ft | 281 kts | 337° |
| 2026-04-20 13:39 | 52.54412 | -1.62396 | 10806 ft | 305 kts | 336° |
| 2026-04-20 13:39 | 52.56428 | -1.63848 | 11103 ft | 326 kts | 336° |
| 2026-04-20 13:40 | 52.58527 | -1.65366 | 11787 ft | 332 kts | 336° |
| 2026-04-20 13:40 | 52.60655 | -1.66905 | 12581 ft | 335 kts | 336° |
| 2026-04-20 13:40 | 52.62803 | -1.68459 | 13346 ft | 339 kts | 335° |
| 2026-04-20 13:40 | 52.64977 | -1.70029 | 14063 ft | 343 kts | 335° |
| 2026-04-20 13:41 | 52.67175 | -1.71616 | 14718 ft | 347 kts | 335° |
| 2026-04-20 13:41 | 52.69415 | -1.73156 | 15393 ft | 351 kts | 340° |
| 2026-04-20 13:41 | 52.71804 | -1.74044 | 16076 ft | 355 kts | 352° |
| 2026-04-20 13:41 | 52.74291 | -1.74073 | 16772 ft | 361 kts | 4° |
| 2026-04-20 13:42 | 52.76790 | -1.73502 | 17446 ft | 364 kts | 6° |
| 2026-04-20 13:42 | 52.81852 | -1.72334 | 18710 ft | 370 kts | 6° |
| 2026-04-20 13:42 | 52.84415 | -1.71757 | 19275 ft | 373 kts | 5° |
| 2026-04-20 13:43 | 52.86994 | -1.71185 | 19834 ft | 375 kts | 5° |
| 2026-04-20 13:43 | 52.89593 | -1.70608 | 20400 ft | 378 kts | 5° |
| 2026-04-20 13:43 | 52.92201 | -1.70020 | 20948 ft | 380 kts | 5° |
| 2026-04-20 13:43 | 52.94828 | -1.69419 | 21498 ft | 382 kts | 5° |
| 2026-04-20 13:44 | 52.97471 | -1.68809 | 22033 ft | 385 kts | 5° |
| 2026-04-20 13:44 | 53.00128 | -1.68196 | 22577 ft | 387 kts | 5° |
| 2026-04-20 13:44 | 53.02812 | -1.67641 | 23055 ft | 389 kts | 1° |
| 2026-04-20 13:44 | 53.05515 | -1.67764 | 23540 ft | 389 kts | 351° |
| 2026-04-20 13:45 | 53.08160 | -1.68722 | 23999 ft | 389 kts | 340° |
| 2026-04-20 13:45 | 53.10706 | -1.70280 | 24404 ft | 391 kts | 338° |
| 2026-04-20 13:45 | 53.13264 | -1.71874 | 24807 ft | 393 kts | 338° |
| 2026-04-20 13:45 | 53.15831 | -1.73469 | 25206 ft | 395 kts | 338° |
| 2026-04-20 13:46 | 53.18419 | -1.75073 | 25608 ft | 397 kts | 338° |
| 2026-04-20 13:46 | 53.20979 | -1.76657 | 25986 ft | 399 kts | 338° |
| 2026-04-20 13:46 | 53.23593 | -1.78282 | 26371 ft | 401 kts | 338° |
| 2026-04-20 13:46 | 53.26217 | -1.79916 | 26745 ft | 405 kts | 338° |
| 2026-04-20 13:47 | 53.28865 | -1.81565 | 27084 ft | 408 kts | 338° |
| 2026-04-20 13:47 | 53.31533 | -1.83227 | 27451 ft | 410 kts | 338° |
| 2026-04-20 13:47 | 53.34211 | -1.84903 | 27816 ft | 412 kts | 338° |
| 2026-04-20 13:47 | 53.36904 | -1.86594 | 28177 ft | 415 kts | 338° |
| 2026-04-20 13:48 | 53.39605 | -1.88292 | 28294 ft | 411 kts | 338° |
| 2026-04-20 13:48 | 53.42264 | -1.89965 | 28302 ft | 406 kts | 338° |
| 2026-04-20 13:48 | 53.47532 | -1.93290 | 28300 ft | 404 kts | 338° |
| 2026-04-20 13:49 | 53.52784 | -1.96607 | 28301 ft | 403 kts | 338° |
| 2026-04-20 13:49 | 53.58039 | -1.99926 | 28303 ft | 403 kts | 338° |
| 2026-04-20 13:50 | 53.63293 | -2.03253 | 28302 ft | 403 kts | 338° |
| 2026-04-20 13:50 | 53.68538 | -2.06586 | 28298 ft | 403 kts | 338° |
| 2026-04-20 13:51 | 53.73775 | -2.09934 | 28287 ft | 402 kts | 338° |
| 2026-04-20 13:51 | 53.78956 | -2.13352 | 28284 ft | 403 kts | 336° |
| 2026-04-20 13:52 | 53.84145 | -2.16936 | 28289 ft | 403 kts | 336° |
| 2026-04-20 13:52 | 53.89333 | -2.20532 | 28289 ft | 403 kts | 336° |
| 2026-04-20 13:53 | 53.94531 | -2.24105 | 28296 ft | 403 kts | 336° |
| 2026-04-20 13:53 | 53.99733 | -2.27683 | 28300 ft | 403 kts | 337° |
| 2026-04-20 13:54 | 54.04939 | -2.31259 | 28300 ft | 404 kts | 337° |
| 2026-04-20 13:54 | 54.10154 | -2.34852 | 28297 ft | 404 kts | 337° |
| 2026-04-20 13:55 | 54.15369 | -2.38460 | 28302 ft | 405 kts | 337° |
| 2026-04-20 13:55 | 54.20582 | -2.42091 | 28302 ft | 405 kts | 337° |
| 2026-04-20 13:56 | 54.25792 | -2.45737 | 28309 ft | 405 kts | 337° |
| 2026-04-20 13:56 | 54.31014 | -2.49370 | 28303 ft | 405 kts | 337° |
| 2026-04-20 13:57 | 54.36242 | -2.53028 | 28304 ft | 406 kts | 337° |
| 2026-04-20 13:57 | 54.41469 | -2.56710 | 28300 ft | 406 kts | 337° |
| 2026-04-20 13:58 | 54.46700 | -2.60393 | 28307 ft | 406 kts | 337° |
| 2026-04-20 13:58 | 54.51929 | -2.64083 | 28309 ft | 407 kts | 337° |
| 2026-04-20 13:59 | 54.57162 | -2.67799 | 28307 ft | 407 kts | 337° |
| 2026-04-20 13:59 | 54.62393 | -2.71515 | 28299 ft | 406 kts | 337° |
| 2026-04-20 14:00 | 54.67581 | -2.75211 | 28311 ft | 406 kts | 337° |
| 2026-04-20 14:00 | 54.72836 | -2.78963 | 28015 ft | 405 kts | 337° |
| 2026-04-20 14:01 | 54.75406 | -2.80799 | 27741 ft | 404 kts | 337° |
| 2026-04-20 14:01 | 54.78000 | -2.82657 | 27463 ft | 403 kts | 337° |
| 2026-04-20 14:01 | 54.80589 | -2.84516 | 27198 ft | 402 kts | 337° |
| 2026-04-20 14:01 | 54.83166 | -2.86370 | 26941 ft | 401 kts | 337° |
| 2026-04-20 14:02 | 54.85736 | -2.88221 | 26666 ft | 399 kts | 337° |
| 2026-04-20 14:02 | 54.88278 | -2.90052 | 26181 ft | 393 kts | 337° |
| 2026-04-20 14:02 | 54.90803 | -2.91874 | 25618 ft | 392 kts | 337° |
| 2026-04-20 14:02 | 54.93316 | -2.93692 | 25077 ft | 390 kts | 337° |
| 2026-04-20 14:03 | 54.95814 | -2.95502 | 24538 ft | 388 kts | 337° |
| 2026-04-20 14:03 | 54.98295 | -2.97300 | 23991 ft | 385 kts | 337° |
| 2026-04-20 14:03 | 55.00766 | -2.99090 | 23394 ft | 383 kts | 337° |
| 2026-04-20 14:03 | 55.03215 | -3.00868 | 22862 ft | 380 kts | 337° |
| 2026-04-20 14:04 | 55.05651 | -3.02641 | 22327 ft | 378 kts | 337° |
| 2026-04-20 14:04 | 55.08070 | -3.04403 | 21802 ft | 376 kts | 337° |
| 2026-04-20 14:04 | 55.10475 | -3.06157 | 21275 ft | 373 kts | 337° |
| 2026-04-20 14:04 | 55.12861 | -3.07902 | 20757 ft | 370 kts | 337° |
| 2026-04-20 14:05 | 55.15230 | -3.09638 | 20240 ft | 369 kts | 337° |
| 2026-04-20 14:05 | 55.17615 | -3.11389 | 19315 ft | 377 kts | 337° |
| 2026-04-20 14:05 | 55.20069 | -3.13194 | 18274 ft | 388 kts | 337° |
| 2026-04-20 14:05 | 55.22552 | -3.15021 | 17793 ft | 382 kts | 337° |
| 2026-04-20 14:06 | 55.24952 | -3.16789 | 17646 ft | 368 kts | 337° |
| 2026-04-20 14:06 | 55.27269 | -3.18496 | 17508 ft | 355 kts | 337° |
| 2026-04-20 14:06 | 55.29502 | -3.20151 | 17373 ft | 343 kts | 335° |
| 2026-04-20 14:06 | 55.31555 | -3.22130 | 17234 ft | 331 kts | 330° |
| 2026-04-20 14:07 | 55.33517 | -3.24148 | 17018 ft | 324 kts | 330° |
| 2026-04-20 14:07 | 55.35453 | -3.26129 | 16684 ft | 320 kts | 330° |
| 2026-04-20 14:07 | 55.37363 | -3.28080 | 16064 ft | 316 kts | 330° |
| 2026-04-20 14:07 | 55.39256 | -3.30019 | 15401 ft | 314 kts | 330° |
| 2026-04-20 14:08 | 55.41136 | -3.31954 | 14738 ft | 312 kts | 330° |
| 2026-04-20 14:08 | 55.43006 | -3.33883 | 14120 ft | 310 kts | 330° |
| 2026-04-20 14:08 | 55.44857 | -3.35796 | 13451 ft | 307 kts | 330° |
| 2026-04-20 14:08 | 55.46684 | -3.37687 | 12787 ft | 303 kts | 330° |
| 2026-04-20 14:09 | 55.48487 | -3.39556 | 12278 ft | 300 kts | 330° |
| 2026-04-20 14:09 | 55.50294 | -3.41427 | 11873 ft | 300 kts | 330° |
| 2026-04-20 14:09 | 55.52098 | -3.43290 | 11497 ft | 299 kts | 330° |
| 2026-04-20 14:09 | 55.53880 | -3.45131 | 11060 ft | 295 kts | 331° |
| 2026-04-20 14:10 | 55.55646 | -3.46960 | 10450 ft | 292 kts | 330° |
| 2026-04-20 14:10 | 55.57385 | -3.48765 | 9931 ft | 288 kts | 330° |
| 2026-04-20 14:10 | 55.59070 | -3.50522 | 9783 ft | 274 kts | 330° |
| 2026-04-20 14:10 | 55.60675 | -3.52202 | 9715 ft | 262 kts | 330° |
| 2026-04-20 14:11 | 55.62213 | -3.53816 | 9615 ft | 252 kts | 330° |
| 2026-04-20 14:11 | 55.63692 | -3.55367 | 9512 ft | 244 kts | 330° |
| 2026-04-20 14:11 | 55.65020 | -3.57218 | 9250 ft | 245 kts | 310° |
| 2026-04-20 14:11 | 55.66125 | -3.59512 | 8888 ft | 245 kts | 315° |
| 2026-04-20 14:12 | 55.67363 | -3.61566 | 8568 ft | 243 kts | 319° |
| 2026-04-20 14:12 | 55.68645 | -3.63518 | 8244 ft | 242 kts | 320° |
| 2026-04-20 14:12 | 55.69945 | -3.65401 | 7923 ft | 241 kts | 322° |
| 2026-04-20 14:12 | 55.71280 | -3.67251 | 7360 ft | 245 kts | 322° |
| 2026-04-20 14:13 | 55.72615 | -3.69095 | 6961 ft | 242 kts | 322° |
| 2026-04-20 14:13 | 55.73938 | -3.70953 | 6608 ft | 242 kts | 321° |
| 2026-04-20 14:13 | 55.75235 | -3.72795 | 6273 ft | 242 kts | 321° |
| 2026-04-20 14:13 | 55.76504 | -3.74798 | 5944 ft | 240 kts | 316° |
| 2026-04-20 14:14 | 55.77710 | -3.76833 | 5631 ft | 237 kts | 322° |
| 2026-04-20 14:14 | 55.79169 | -3.77942 | 5371 ft | 231 kts | 356° |
| 2026-04-20 14:14 | 55.80714 | -3.77465 | 5096 ft | 226 kts | 29° |
| 2026-04-20 14:14 | 55.81855 | -3.75674 | 4915 ft | 213 kts | 58° |
| 2026-04-20 14:15 | 55.82618 | -3.73484 | 4700 ft | 204 kts | 60° |
| 2026-04-20 14:15 | 55.83345 | -3.71357 | 4430 ft | 199 kts | 60° |
| 2026-04-20 14:15 | 55.84046 | -3.69317 | 4191 ft | 188 kts | 60° |
| 2026-04-20 14:15 | 55.84709 | -3.67389 | 3928 ft | 178 kts | 60° |
| 2026-04-20 14:16 | 55.85337 | -3.65560 | 3687 ft | 169 kts | 60° |
| 2026-04-20 14:16 | 55.85935 | -3.63816 | 3459 ft | 163 kts | 60° |
| 2026-04-20 14:16 | 55.86522 | -3.62104 | 3241 ft | 161 kts | 60° |
| 2026-04-20 14:16 | 55.87112 | -3.60383 | 3019 ft | 160 kts | 61° |
| 2026-04-20 14:17 | 55.87682 | -3.58718 | 2803 ft | 160 kts | 60° |
| 2026-04-20 14:17 | 55.88273 | -3.56989 | 2570 ft | 161 kts | 60° |
| 2026-04-20 14:17 | 55.88845 | -3.55318 | 2355 ft | 160 kts | 60° |
| 2026-04-20 14:17 | 55.89425 | -3.53619 | 2135 ft | 160 kts | 61° |
| 2026-04-20 14:18 | 55.90001 | -3.51935 | 1906 ft | 158 kts | 60° |
| 2026-04-20 14:18 | 55.90567 | -3.50275 | 1685 ft | 154 kts | 60° |
| 2026-04-20 14:18 | 55.91108 | -3.48692 | 1485 ft | 145 kts | 61° |
| 2026-04-20 14:18 | 55.91610 | -3.47220 | 1304 ft | 136 kts | 62° |
| 2026-04-20 14:19 | 55.92094 | -3.45797 | 1099 ft | 133 kts | 60° |
| 2026-04-20 14:19 | 55.92573 | -3.44390 | 905 ft | 131 kts | 60° |
| 2026-04-20 14:19 | 55.93049 | -3.42991 | 712 ft | 133 kts | 59° |
| 2026-04-20 14:19 | 55.93523 | -3.41596 | 534 ft | 131 kts | 59° |
| 2026-04-20 14:20 | 55.93992 | -3.40215 | 365 ft | 129 kts | 59° |
| 2026-04-20 14:20 | 55.94453 | -3.38860 | 179 ft | 127 kts | 59° |
| 2026-04-20 14:20 | 55.94880 | -3.37597 | 112 ft | 102 kts | 59° |
| 2026-04-20 14:20 | 55.95162 | -3.36767 | 109 ft | 58 kts | 59° |
| 2026-04-20 14:21 | 55.95329 | -3.36274 | 101 ft | 40 kts | 59° |
| 2026-04-20 14:21 | 55.95460 | -3.35890 | 100 ft | 33 kts | 58° |
| 2026-04-20 14:21 | 55.95549 | -3.35628 | 102 ft | 19 kts | 59° |
| 2026-04-20 14:21 | 55.95505 | -3.35447 | 102 ft | 19 kts | 146° |
| 2026-04-20 14:22 | 55.95438 | -3.35404 | 104 ft | 7 kts | 201° |
| 2026-04-20 14:22 | 55.95402 | -3.35488 | 105 ft | 15 kts | 238° |
| 2026-04-20 14:22 | 55.95344 | -3.35659 | 103 ft | 16 kts | 239° |
| 2026-04-20 14:22 | 55.95286 | -3.35831 | 102 ft | 16 kts | 239° |
| 2026-04-20 14:23 | 55.95241 | -3.35963 | 101 ft | 9 kts | 237° |
| 2026-04-20 14:23 | 55.95193 | -3.35973 | 101 ft | 11 kts | 154° |
| 2026-04-20 14:23 | 55.95123 | -3.35877 | 106 ft | 12 kts | 123° |
| 2026-04-20 14:23 | 55.95062 | -3.35790 | 107 ft | 12 kts | 193° |
| 2026-04-20 14:24 | 55.94991 | -3.35853 | 107 ft | 7 kts | 205° |
| 2026-04-20 14:24 | 55.94954 | -3.35860 | 107 ft | 5 kts | 173° |
| 2026-04-20 14:24 | 55.94922 | -3.35862 | 107 ft | 7 kts | 200° |
| 2026-04-20 14:24 | 55.94890 | -3.35938 | 107 ft | 7 kts | 239° |
| 2026-04-20 14:25 | 55.94882 | -3.35962 | 108 ft | 0 kts | 239° |
| 2026-04-20 14:25 | 55.94880 | -3.35968 | 108 ft | 0 kts | 239° |